Terminal Aerodrome Forecast
Issued by NWS

Home | Current Version | Previous Version | Text Only | Print | Product List | Glossary On
Versions: 1 2 3 4 5 6 7 8 9 10 11 12 13 14 15 16 17 18 19 20 21 22 23 24 25 26 27 28
000
FTUS43 KGRR 180540
TAFAZO
TAF
KAZO 180540Z 1806/1906 26010KT 4SM -SN BR OVC006
     FM180700 26010KT 2SM BR OVC005
     FM181400 24009KT 3SM BR OVC015
     FM181700 23011KT 6SM BR BKN025
     FM182300 22006KT 6SM BR BKN150=

USA.gov is the U.S. government's official web portal to all federal, state and local government web resources and services.